Brunswick Golden Isles Airport Brunswick US
ICAO: KBQK
IATA: BQK
Category: Medium
Scheduled Services: Yes

Elevation: 26 ft
TransAlt. 18000 ft.

Airport Communications:
AWOS 3:124.175
CLNC DEL:126.75
JACKSONVILLE CNTR:126.75
MACON RDO:122.2
CTAF/UNICOM:122.8

KBQK Zoom In..

Runways:

(A) RW 07 length 8001 ft width 150 ft
ILS 108.50 / hdg 69

(B) RW 25 length 8001 ft width 150 ft
---- / hdg 249

Location; KBQK
Day. 22 / Time. 00.35 Zulu
* Altimeter: 30.27
* Temperature: 18° c. 64.4°f.
* Wind from: 060° Speed 04 kn.
Dewpoint: 15° c.
Visibility: 10 Statute Miles.
Clouds: Broken 2900 ft.
Clouds: Overcast 3700 ft.

KBQK 220035Z AUTO 06004KT 10SM BKN029 OVC037 18/15 A3027 RMK AO2


Wind From 060°
Speed 04 kn.

  YouTube Music Video
 
jpsmedia.com for Web Design  worldairports.se 2018   terms of use